地図

経路データ

SID SEASON NUMBER BASIN SUBBASIN NAME ISO_TIME NATURE LAT LON WMO_WIND WMO_PRES WMO_AGENCY TRACK_TYPE DIST2LAND LANDFALL IFLAG USA_AGENCY USA_ATCF_ID USA_LAT USA_LON USA_RECORD USA_STATUS USA_WIND USA_PRES USA_SSHS USA_R34_NE USA_R34_SE USA_R34_SW USA_R34_NW USA_R50_NE USA_R50_SE USA_R50_SW USA_R50_NW USA_R64_NE USA_R64_SE USA_R64_SW USA_R64_NW USA_POCI USA_ROCI USA_RMW USA_EYE TOKYO_LAT TOKYO_LON TOKYO_GRADE TOKYO_WIND TOKYO_PRES TOKYO_R50_DIR TOKYO_R50_LONG TOKYO_R50_SHORT TOKYO_R30_DIR TOKYO_R30_LONG TOKYO_R30_SHORT TOKYO_LAND CMA_LAT CMA_LON CMA_CAT CMA_WIND CMA_PRES HKO_LAT HKO_LON HKO_CAT HKO_WIND HKO_PRES NEWDELHI_LAT NEWDELHI_LON NEWDELHI_GRADE NEWDELHI_WIND NEWDELHI_PRES NEWDELHI_CI NEWDELHI_DP NEWDELHI_POCI REUNION_LAT REUNION_LON REUNION_TYPE REUNION_WIND REUNION_PRES REUNION_TNUM REUNION_CI REUNION_RMW REUNION_R34_NE REUNION_R34_SE REUNION_R34_SW REUNION_R34_NW REUNION_R50_NE REUNION_R50_SE REUNION_R50_SW REUNION_R50_NW REUNION_R64_NE REUNION_R64_SE REUNION_R64_SW REUNION_R64_NW BOM_LAT BOM_LON BOM_TYPE BOM_WIND BOM_PRES BOM_TNUM BOM_CI BOM_RMW BOM_R34_NE BOM_R34_SE BOM_R34_SW BOM_R34_NW BOM_R50_NE BOM_R50_SE BOM_R50_SW BOM_R50_NW BOM_R64_NE BOM_R64_SE BOM_R64_SW BOM_R64_NW BOM_ROCI BOM_POCI BOM_EYE BOM_POS_METHOD BOM_PRES_METHOD NADI_LAT NADI_LON NADI_CAT NADI_WIND NADI_PRES WELLINGTON_LAT WELLINGTON_LON WELLINGTON_WIND WELLINGTON_PRES DS824_LAT DS824_LON DS824_STAGE DS824_WIND DS824_PRES TD9636_LAT TD9636_LON TD9636_STAGE TD9636_WIND TD9636_PRES TD9635_LAT TD9635_LON TD9635_WIND TD9635_PRES TD9635_ROCI NEUMANN_LAT NEUMANN_LON NEUMANN_CLASS NEUMANN_WIND NEUMANN_PRES MLC_LAT MLC_LON MLC_CLASS MLC_WIND MLC_PRES USA_GUST BOM_GUST BOM_GUST_PER REUNION_GUST REUNION_GUST_PER USA_SEAHGT USA_SEARAD_NE USA_SEARAD_SE USA_SEARAD_SW USA_SEARAD_NW STORM_SPEED STORM_DIR
1916148N08124 1916 26 WP MM NOT_NAMED 1916-05-26 22:00:00 NR 8.40000 123.900 main 11 0 __________O___ -1 8.40000 123.900 2 11 275
1916148N08124 1916 26 WP MM NOT_NAMED 1916-05-27 00:00:00 NR 8.43414 123.528 main 0 0 __________P___ -1 8.43414 123.528 2 11 276
1916148N08124 1916 26 WP MM NOT_NAMED 1916-05-27 03:00:00 NR 8.49098 122.967 main 11 15 __________P___ -1 8.49098 122.967 2 11 277
1916148N08124 1916 26 WP MM NOT_NAMED 1916-05-27 06:00:00 NR 8.56319 122.394 main 57 57 __________P___ -1 8.56319 122.394 2 12 278
1916148N08124 1916 26 WP MM NOT_NAMED 1916-05-27 09:00:00 NR 8.66039 121.802 main 89 89 __________P___ -1 8.66039 121.802 2 12 280
1916148N08124 1916 26 WP MM NOT_NAMED 1916-05-27 10:00:00 NR 8.70000 121.600 main 102 102 __________O___ -1 8.70000 121.600 2 12 282
1916148N08124 1916 26 WP MM NOT_NAMED 1916-05-27 12:00:00 NR 8.79077 121.188 main 141 141 __________P___ -1 8.79077 121.188 2 13 283
1916148N08124 1916 26 WP MM NOT_NAMED 1916-05-27 15:00:00 NR 8.94607 120.562 main 200 142 __________P___ -1 8.94607 120.562 2 13 285
1916148N08124 1916 26 WP MM NOT_NAMED 1916-05-27 18:00:00 NR 9.10755 119.950 main 142 79 __________P___ -1 9.10755 119.950 2 12 285
1916148N08124 1916 26 WP MM NOT_NAMED 1916-05-27 21:00:00 NR 9.25641 119.378 main 79 62 __________P___ -1 9.25641 119.378 2 12 285
1916148N08124 1916 26 WP MM NOT_NAMED 1916-05-27 22:00:00 NR 9.30000 119.200 main 62 31 __________O___ -1 9.30000 119.200 2 10 281
1916148N08124 1916 26 WP MM NOT_NAMED 1916-05-28 00:00:00 NR 9.35099 118.879 main 31 0 __________P___ -1 9.35099 118.879 2 9 278
1916148N08124 1916 26 WP MM NOT_NAMED 1916-05-28 03:00:00 NR 9.40852 118.442 main 0 0 __________P___ -1 9.40852 118.442 2 8 278
1916148N08124 1916 26 WP MM NOT_NAMED 1916-05-28 06:00:00 NR 9.46831 118.036 main 24 24 __________P___ -1 9.46831 118.036 2 8 281
1916148N08124 1916 26 WP MM NOT_NAMED 1916-05-28 09:00:00 NR 9.55841 117.636 main 49 49 __________P___ -1 9.55841 117.636 2 8 284
1916148N08124 1916 26 WP MM NOT_NAMED 1916-05-28 10:00:00 NR 9.60000 117.500 main 55 55 __________O___ -1 9.60000 117.500 2 9 290
1916148N08124 1916 26 WP MM NOT_NAMED 1916-05-28 12:00:00 NR 9.71576 117.193 main 86 86 __________P___ -1 9.71576 117.193 2 10 293
1916148N08124 1916 26 WP MM NOT_NAMED 1916-05-28 15:00:00 NR 9.92729 116.725 main 141 141 __________P___ -1 9.92729 116.725 2 10 296
1916148N08124 1916 26 WP MM NOT_NAMED 1916-05-28 18:00:00 NR 10.1675 116.266 main 196 203 __________P___ -1 10.1675 116.266 2 10 299
1916148N08124 1916 26 WP MM NOT_NAMED 1916-05-28 21:00:00 NR 10.4176 115.835 main 251 251 __________P___ -1 10.4176 115.835 2 10 301
1916148N08124 1916 26 WP MM NOT_NAMED 1916-05-28 22:00:00 NR 10.5000 115.700 main 266 266 __________O___ -1 10.5000 115.700 2 9 302
1916148N08124 1916 26 WP MM NOT_NAMED 1916-05-29 00:00:00 NR 10.6471 115.462 main 290 306 __________P___ -1 10.6471 115.462 2 8 304
1916148N08124 1916 26 WP MM NOT_NAMED 1916-05-29 03:00:00 NR 10.8678 115.138 main 345 345 __________P___ -1 10.8678 115.138 2 8 306
1916148N08124 1916 26 WP MM NOT_NAMED 1916-05-29 06:00:00 NR 11.0916 114.829 main 385 385 __________P___ -1 11.0916 114.829 2 8 306
1916148N08124 1916 26 WP MM NOT_NAMED 1916-05-29 09:00:00 NR 11.3215 114.512 main 424 424 __________P___ -1 11.3215 114.512 2 8 306
1916148N08124 1916 26 WP MM NOT_NAMED 1916-05-29 10:00:00 NR 11.4000 114.400 main 440 440 __________O___ -1 11.4000 114.400 2 9 303
1916148N08124 1916 26 WP MM NOT_NAMED 1916-05-29 12:00:00 NR 11.5584 114.137 main 479 465 __________P___ -1 11.5584 114.137 2 9 301
1916148N08124 1916 26 WP MM NOT_NAMED 1916-05-29 15:00:00 NR 11.8023 113.724 main 465 416 __________P___ -1 11.8023 113.724 2 10 301
1916148N08124 1916 26 WP MM NOT_NAMED 1916-05-29 18:00:00 NR 12.0535 113.310 main 416 370 __________P___ -1 12.0535 113.310 2 9 303
1916148N08124 1916 26 WP MM NOT_NAMED 1916-05-29 21:00:00 NR 12.3121 112.920 main 370 359 __________P___ -1 12.3121 112.920 2 9 305
1916148N08124 1916 26 WP MM NOT_NAMED 1916-05-29 22:00:00 NR 12.4000 112.800 main 359 336 __________O___ -1 12.4000 112.800 2 8 307
1916148N08124 1916 26 WP MM NOT_NAMED 1916-05-30 00:00:00 NR 12.5591 112.580 main 336 303 __________P___ -1 12.5591 112.580 2 8 309
1916148N08124 1916 26 WP MM NOT_NAMED 1916-05-30 03:00:00 NR 12.8038 112.281 main 303 271 __________P___ -1 12.8038 112.281 2 8 313
1916148N08124 1916 26 WP MM NOT_NAMED 1916-05-30 06:00:00 NR 13.0724 112.015 main 271 253 __________P___ -1 13.0724 112.015 2 8 320
1916148N08124 1916 26 WP MM NOT_NAMED 1916-05-30 09:00:00 NR 13.3836 111.775 main 255 244 __________P___ -1 13.3836 111.775 2 8 324
1916148N08124 1916 26 WP MM NOT_NAMED 1916-05-30 10:00:00 NR 13.5000 111.700 main 247 237 __________O___ -1 13.5000 111.700 2 9 329
1916148N08124 1916 26 WP MM NOT_NAMED 1916-05-30 12:00:00 NR 13.7626 111.544 main 237 218 __________P___ -1 13.7626 111.544 2 10 333
1916148N08124 1916 26 WP MM NOT_NAMED 1916-05-30 15:00:00 NR 14.2007 111.330 main 218 209 __________P___ -1 14.2007 111.330 2 10 336
1916148N08124 1916 26 WP MM NOT_NAMED 1916-05-30 18:00:00 NR 14.6698 111.135 main 213 205 __________P___ -1 14.6698 111.135 2 10 339
1916148N08124 1916 26 WP MM NOT_NAMED 1916-05-30 21:00:00 NR 15.1447 110.956 main 209 201 __________P___ -1 15.1447 110.956 2 10 340
1916148N08124 1916 26 WP MM NOT_NAMED 1916-05-30 22:00:00 NR 15.3000 110.900 main 204 198 __________O___ -1 15.3000 110.900 2 9 341
1916148N08124 1916 26 WP MM NOT_NAMED 1916-05-31 00:00:00 NR 15.5889 110.799 main 208 204 __________P___ -1 15.5889 110.799 2 9 342
1916148N08124 1916 26 WP MM NOT_NAMED 1916-05-31 03:00:00 NR 16.0160 110.660 main 212 208 __________P___ -1 16.0160 110.660 2 9 342
1916148N08124 1916 26 WP MM NOT_NAMED 1916-05-31 06:00:00 NR 16.4385 110.520 main 217 163 __________P___ -1 16.4385 110.520 2 9 341
1916148N08124 1916 26 WP MM NOT_NAMED 1916-05-31 09:00:00 NR 16.8595 110.361 main 163 148 __________P___ -1 16.8595 110.361 2 9 340
1916148N08124 1916 26 WP MM NOT_NAMED 1916-05-31 10:00:00 NR 17.0000 110.300 main 148 113 __________O___ -1 17.0000 110.300 2 10 336
1916148N08124 1916 26 WP MM NOT_NAMED 1916-05-31 12:00:00 NR 17.2912 110.156 main 113 59 __________P___ -1 17.2912 110.156 2 10 333
1916148N08124 1916 26 WP MM NOT_NAMED 1916-05-31 15:00:00 NR 17.7282 109.915 main 59 0 __________P___ -1 17.7282 109.915 2 10 331
1916148N08124 1916 26 WP MM NOT_NAMED 1916-05-31 18:00:00 NR 18.1571 109.655 main 0 0 __________P___ -1 18.1571 109.655 2 10 329
1916148N08124 1916 26 WP MM NOT_NAMED 1916-05-31 21:00:00 NR 18.5684 109.388 main 0 0 __________P___ -1 18.5684 109.388 2 10 328
1916148N08124 1916 26 WP MM NOT_NAMED 1916-05-31 22:00:00 NR 18.7000 109.300 main 0 0 __________O___ -1 18.7000 109.300 2 9 330
1916148N08124 1916 26 WP MM NOT_NAMED 1916-06-01 00:00:00 NR 18.9474 109.159 main 0 0 __________P___ -1 18.9474 109.159 2 8 331
1916148N08124 1916 26 WP MM NOT_NAMED 1916-06-01 03:00:00 NR 19.2997 108.948 main 0 0 __________P___ -1 19.2997 108.948 2 8 329
1916148N08124 1916 26 WP MM NOT_NAMED 1916-06-01 06:00:00 NR 19.6408 108.711 main 22 30 __________P___ -1 19.6408 108.711 2 9 324
1916148N08124 1916 26 WP MM NOT_NAMED 1916-06-01 09:00:00 NR 19.9833 108.416 main 74 74 __________P___ -1 19.9833 108.416 2 9 320
1916148N08124 1916 26 WP MM NOT_NAMED 1916-06-01 10:00:00 NR 20.1000 108.300 main 88 88 __________O___ -1 20.1000 108.300 2 10 315
1916148N08124 1916 26 WP MM NOT_NAMED 1916-06-01 12:00:00 NR 20.3389 108.036 main 100 39 __________P___ -1 20.3389 108.036 2 11 312
1916148N08124 1916 26 WP MM NOT_NAMED 1916-06-01 15:00:00 NR 20.7090 107.572 main 39 0 __________P___ -1 20.7090 107.572 2 12 309
1916148N08124 1916 26 WP MM NOT_NAMED 1916-06-01 18:00:00 NR 21.0884 107.049 main 0 0 __________P___ -1 21.0884 107.049 2 13 307
1916148N08124 1916 26 WP MM NOT_NAMED 1916-06-01 21:00:00 NR 21.4720 106.490 main 0 0 __________P___ -1 21.4720 106.490 2 13 306
1916148N08124 1916 26 WP MM NOT_NAMED 1916-06-01 22:00:00 NR 21.6000 106.300 main 0 __________O___ -1 21.6000 106.300 2 13 306

デジタル台風データ・検索

IBTrACS Databaseについて

本データベースは、米国NOAAが公開する1842年以降の世界の熱帯低気圧のベストトラックデータアーカイブInternational Best Track Archive for Climate Stewardship (IBTrACS)を、ウェブで閲覧しやすい形式に変換したものです。

最終更新日:2021-11-26